LEZL/SVQ METAR and TAF weather

Enter ICAO airport designator
Station Type Date Time Source
LEZL METAR 2022/01/18 06:30 UTC NOAA

LEZL 180630Z 05007KT CAVOK 05/03 Q1029 NOSIG


Station Type Date Time Source
LEZL Decoded METAR 2022/01/18 06:30 UTC NOAA

Sevilla / San Pablo, Spain (LEZL) 37-25N 005-54W 31M
Jan 18, 2022 - 01:30 AM EST / 2022.01.18 0630 UTC
Wind: from the NE (050 degrees) at 8 MPH (7 KT):0
Visibility: greater than 7 mile(s):0
Temperature: 41 F (5 C)
Dew Point: 37 F (3 C)
Relative Humidity: 86%
Pressure (altimeter): 30.39 in. Hg (1029 hPa)
ob: LEZL 180630Z 05007KT CAVOK 05/03 Q1029 NOSIG
cycle: 6

Station Type Date Time Source
LEZL TAF 2022/01/18 03:27 UTC NOAA

TAF LEZL 180200Z 1803/1903 04006KT CAVOK TX17/1815Z TN03/1903Z

Example: see airport list